Time;durP1;ratioP1;P1;durP2;ratioP2;P2;SDS_P1;SDS_P2;PMS_P1;PMS_P2;Temp;Humidity;BMP_temperature;BMP_pressure;BME280_temperature;BME280_humidity;BME280_pressure;Samples;Min_cycle;Max_cycle;Signal;HPM_P1;HPM_P2
2022/12/13 00:02:58;;;;;;;19.98;10.65;;;;;;;;;;5092141;28;20214;-74
2022/12/13 00:06:07;;;;;;;18.30;9.50;;;;;;;;;;5080910;28;20197;-74
2022/12/13 00:09:16;;;;;;;25.10;11.50;;;;;;;;;;5092445;28;20183;-74
2022/12/13 00:12:20;;;;;;;25.02;11.57;;;;;;;;;;5092313;28;20708;-74
2022/12/13 00:15:24;;;;;;;21.13;10.52;;;;;;;;;;5092431;28;20641;-74
2022/12/13 00:18:28;;;;;;;19.90;10.88;;;;;;;;;;5092876;28;20668;-74
2022/12/13 00:21:33;;;;;;;20.65;10.80;;;;;;;;;;5092949;28;20221;-73
2022/12/13 00:24:37;;;;;;;19.40;9.75;;;;;;;;;;5080691;28;20182;-73
2022/12/13 00:27:41;;;;;;;24.40;11.40;;;;;;;;;;5093087;28;20186;-74
2022/12/13 00:30:47;;;;;;;20.65;9.57;;;;;;;;;;5092648;28;20190;-73
2022/12/13 00:33:52;;;;;;;21.63;11.00;;;;;;;;;;5092944;28;20222;-74
2022/12/13 00:36:59;;;;;;;21.42;10.02;;;;;;;;;;5091888;28;20186;-74
2022/12/13 00:40:04;;;;;;;23.42;10.13;;;;;;;;;;5095817;28;20671;-74
2022/12/13 00:43:09;;;;;;;23.90;10.23;;;;;;;;;;5096737;28;20193;-74
2022/12/13 00:46:16;;;;;;;20.13;10.82;;;;;;;;;;5096207;28;20541;-74
2022/12/13 00:49:21;;;;;;;21.60;9.68;;;;;;;;;;5095846;28;20640;-74
2022/12/13 00:52:25;;;;;;;19.83;10.38;;;;;;;;;;5095369;28;20210;-74
2022/12/13 00:55:30;;;;;;;23.58;11.30;;;;;;;;;;5096174;28;20209;-74
2022/12/13 00:58:34;;;;;;;25.55;11.50;;;;;;;;;;5083787;28;20190;-74
2022/12/13 01:01:39;;;;;;;19.73;11.00;;;;;;;;;;5095726;28;20225;-74
2022/12/13 01:04:43;;;;;;;27.27;12.38;;;;;;;;;;5096321;28;20645;-74
2022/12/13 01:07:47;;;;;;;23.30;12.98;;;;;;;;;;5095722;28;20205;-74
2022/12/13 01:10:51;;;;;;;23.17;12.68;;;;;;;;;;5095561;28;20194;-74
2022/12/13 01:13:55;;;;;;;23.08;12.57;;;;;;;;;;5083597;28;20218;-74
2022/12/13 01:16:59;;;;;;;21.75;11.93;;;;;;;;;;5095765;28;20190;-74
2022/12/13 01:20:05;;;;;;;21.67;11.50;;;;;;;;;;5096311;28;20300;-74
2022/12/13 01:23:09;;;;;;;22.25;11.43;;;;;;;;;;5095973;28;20178;-74
2022/12/13 01:26:15;;;;;;;20.92;11.27;;;;;;;;;;5095076;28;20181;-74
2022/12/13 01:29:20;;;;;;;19.25;11.32;;;;;;;;;;5083444;28;20186;-73
2022/12/13 01:32:24;;;;;;;19.58;11.15;;;;;;;;;;5095138;28;20213;-73
2022/12/13 01:35:29;;;;;;;18.75;10.80;;;;;;;;;;5096087;28;20530;-74
2022/12/13 01:38:34;;;;;;;23.15;11.38;;;;;;;;;;5095382;28;20186;-74
2022/12/13 01:41:39;;;;;;;23.38;11.23;;;;;;;;;;5095226;28;20225;-74
2022/12/13 01:44:55;;;;;;;24.20;13.07;;;;;;;;;;5071629;28;20198;-73
2022/12/13 01:48:06;;;;;;;22.45;12.55;;;;;;;;;;5094698;28;20186;-74
2022/12/13 01:51:13;;;;;;;22.75;13.15;;;;;;;;;;5094091;28;20218;-73
2022/12/13 01:54:23;;;;;;;25.33;12.65;;;;;;;;;;5095150;28;20688;-73
2022/12/13 01:57:27;;;;;;;25.35;12.07;;;;;;;;;;5095820;28;20182;-74
2022/12/13 02:00:33;;;;;;;21.38;11.48;;;;;;;;;;5095037;28;20178;-73
2022/12/13 02:03:38;;;;;;;24.30;11.77;;;;;;;;;;5095442;28;20174;-74
2022/12/13 02:06:44;;;;;;;18.20;10.63;;;;;;;;;;5093965;28;20197;-74
2022/12/13 02:09:50;;;;;;;25.60;12.48;;;;;;;;;;5095245;28;20178;-74
2022/12/13 02:12:54;;;;;;;20.85;11.75;;;;;;;;;;5082944;28;20225;-74
2022/12/13 02:16:01;;;;;;;24.35;12.30;;;;;;;;;;5094478;28;20194;-74
2022/12/13 02:19:26;;;;;;;25.35;12.35;;;;;;;;;;5082436;28;20187;-74
2022/12/13 02:22:51;;;;;;;24.15;11.63;;;;;;;;;;5082194;28;20221;-74
2022/12/13 02:26:27;;;;;;;22.70;12.10;;;;;;;;;;5082731;28;20178;-74
2022/12/13 02:29:49;;;;;;;22.58;10.95;;;;;;;;;;5095062;28;20633;-73
2022/12/13 02:32:56;;;;;;;20.53;10.63;;;;;;;;;;5094392;28;20242;-74
2022/12/13 02:36:04;;;;;;;24.92;12.70;;;;;;;;;;5094291;28;20186;-74
2022/12/13 02:39:21;;;;;;;23.17;11.48;;;;;;;;;;5081746;28;20202;-74
2022/12/13 02:42:33;;;;;;;23.55;11.18;;;;;;;;;;5070458;28;20696;-74
2022/12/13 02:45:46;;;;;;;23.73;11.82;;;;;;;;;;5081570;28;20190;-74
2022/12/13 02:48:55;;;;;;;19.05;10.43;;;;;;;;;;5094044;28;20190;-74
2022/12/13 02:52:00;;;;;;;22.17;11.73;;;;;;;;;;5081444;28;20585;-73
2022/12/13 02:55:11;;;;;;;21.58;11.18;;;;;;;;;;5081323;28;20233;-73
2022/12/13 02:58:21;;;;;;;23.70;10.98;;;;;;;;;;5093043;28;20186;-74
2022/12/13 03:01:33;;;;;;;25.20;12.05;;;;;;;;;;5068878;28;20716;-74
2022/12/13 03:08:49;;;;;;;19.48;10.93;;;;;;;;;;5093402;28;20576;-73
2022/12/13 03:15:27;;;;;;;22.48;10.77;;;;;;;;;;5092746;28;20217;-74
2022/12/13 03:18:32;;;;;;;21.92;10.70;;;;;;;;;;5092748;28;20186;-74
2022/12/13 03:21:42;;;;;;;19.42;10.10;;;;;;;;;;5080385;28;20221;-74
2022/12/13 03:24:47;;;;;;;22.00;10.55;;;;;;;;;;5093193;28;20186;-74
2022/12/13 03:27:51;;;;;;;19.67;10.65;;;;;;;;;;5080497;28;20194;-74
2022/12/13 03:30:55;;;;;;;18.65;10.20;;;;;;;;;;5068836;28;20257;-74
2022/12/13 03:33:59;;;;;;;19.52;10.18;;;;;;;;;;5068567;28;20209;-74
2022/12/13 03:37:04;;;;;;;18.73;9.10;;;;;;;;;;5080134;28;20664;-74
2022/12/13 03:40:09;;;;;;;20.98;9.88;;;;;;;;;;5092777;28;20179;-74
2022/12/13 03:43:13;;;;;;;21.15;10.73;;;;;;;;;;5080244;28;20183;-73
2022/12/13 03:46:17;;;;;;;19.77;10.00;;;;;;;;;;5080185;28;20190;-73
2022/12/13 03:49:21;;;;;;;20.40;10.88;;;;;;;;;;5079920;28;20269;-74
2022/12/13 03:52:25;;;;;;;20.63;10.30;;;;;;;;;;5092498;28;20221;-74
2022/12/13 03:55:29;;;;;;;25.90;11.13;;;;;;;;;;5042043;28;1090972;-74
2022/12/13 03:58:34;;;;;;;25.15;11.80;;;;;;;;;;5093356;28;20186;-74
2022/12/13 04:01:38;;;;;;;22.38;10.68;;;;;;;;;;5093764;28;20695;-74
2022/12/13 04:04:42;;;;;;;23.23;10.85;;;;;;;;;;5093624;28;20181;-74
2022/12/13 04:07:47;;;;;;;23.90;9.93;;;;;;;;;;5091250;22;20230;-73
2022/12/13 04:10:52;;;;;;;24.70;11.20;;;;;;;;;;5044451;28;20192;-74
2022/12/13 04:13:56;;;;;;;19.50;10.10;;;;;;;;;;5059168;28;20211;-73
2022/12/13 04:17:00;;;;;;;21.33;10.40;;;;;;;;;;5060664;28;20183;-73
2022/12/13 04:20:04;;;;;;;25.42;11.40;;;;;;;;;;5048236;28;20191;-73
2022/12/13 04:23:09;;;;;;;19.75;9.90;;;;;;;;;;5060645;28;20211;-73
2022/12/13 04:26:13;;;;;;;21.70;10.60;;;;;;;;;;5060838;28;20196;-73
2022/12/13 04:29:18;;;;;;;22.75;10.80;;;;;;;;;;5037127;28;20183;-73
2022/12/13 04:32:22;;;;;;;20.55;10.35;;;;;;;;;;5060260;28;20220;-73
2022/12/13 04:35:26;;;;;;;18.65;9.88;;;;;;;;;;5060567;28;20585;-73
2022/12/13 04:38:30;;;;;;;20.75;10.20;;;;;;;;;;5060614;28;20196;-73
2022/12/13 04:41:38;;;;;;;20.33;11.00;;;;;;;;;;5048605;28;20721;-73
2022/12/13 04:44:42;;;;;;;25.77;11.68;;;;;;;;;;5060155;28;20705;-73
2022/12/13 04:47:48;;;;;;;24.42;12.18;;;;;;;;;;5060871;28;20188;-73
2022/12/13 04:50:52;;;;;;;21.65;11.25;;;;;;;;;;5061443;28;20187;-75
2022/12/13 04:53:56;;;;;;;22.45;11.10;;;;;;;;;;5060842;28;20222;-74
2022/12/13 04:57:00;;;;;;;25.17;12.75;;;;;;;;;;5060419;28;20211;-74
2022/12/13 05:00:06;;;;;;;27.77;11.50;;;;;;;;;;5047978;28;20255;-74
2022/12/13 05:03:10;;;;;;;23.45;12.40;;;;;;;;;;5060602;28;20207;-75
2022/12/13 05:06:14;;;;;;;29.13;13.07;;;;;;;;;;5060273;28;20183;-75
2022/12/13 05:09:18;;;;;;;28.90;12.70;;;;;;;;;;5048154;28;20191;-75
2022/12/13 05:12:23;;;;;;;26.05;12.20;;;;;;;;;;5047018;28;20218;-74
2022/12/13 05:15:29;;;;;;;27.63;12.88;;;;;;;;;;5046970;28;20230;-74
2022/12/13 05:18:35;;;;;;;22.08;11.27;;;;;;;;;;5059576;28;20183;-74
2022/12/13 05:21:40;;;;;;;22.70;10.50;;;;;;;;;;5047160;28;20230;-74
2022/12/13 05:24:44;;;;;;;22.80;11.00;;;;;;;;;;5059201;28;20199;-74
2022/12/13 05:27:48;;;;;;;23.15;11.27;;;;;;;;;;5047175;28;20538;-74
2022/12/13 05:30:58;;;;;;;20.95;10.93;;;;;;;;;;5058917;28;20650;-74
2022/12/13 05:34:02;;;;;;;26.70;11.85;;;;;;;;;;5059618;28;20183;-74
2022/12/13 05:37:06;;;;;;;35.80;14.63;;;;;;;;;;5058765;28;20183;-74
2022/12/13 05:40:10;;;;;;;28.70;13.48;;;;;;;;;;5058828;28;20215;-74
2022/12/13 05:43:15;;;;;;;34.53;13.48;;;;;;;;;;5059093;28;20191;-75
2022/12/13 05:46:19;;;;;;;25.52;12.60;;;;;;;;;;5059491;28;20180;-74
2022/12/13 05:49:23;;;;;;;28.15;13.95;;;;;;;;;;5060424;28;20646;-74
2022/12/13 05:52:28;;;;;;;27.40;14.52;;;;;;;;;;5058757;28;20218;-74
2022/12/13 05:55:32;;;;;;;27.30;12.65;;;;;;;;;;5058583;28;20211;-75
2022/12/13 05:58:38;;;;;;;25.95;13.13;;;;;;;;;;5058137;28;20210;-75
2022/12/13 06:01:43;;;;;;;27.15;13.48;;;;;;;;;;5058412;28;20226;-74
2022/12/13 06:04:47;;;;;;;24.33;13.63;;;;;;;;;;5058288;28;20550;-74
2022/12/13 06:07:53;;;;;;;33.15;16.30;;;;;;;;;;5058612;28;20206;-75
2022/12/13 06:10:59;;;;;;;28.55;14.48;;;;;;;;;;5059165;28;20199;-74
2022/12/13 06:14:04;;;;;;;28.52;14.48;;;;;;;;;;5045277;28;20203;-75
2022/12/13 06:17:08;;;;;;;25.67;14.57;;;;;;;;;;5042515;28;20187;-75
2022/12/13 06:20:12;;;;;;;23.38;12.52;;;;;;;;;;5031298;28;20187;-75
2022/12/13 06:23:16;;;;;;;27.83;13.15;;;;;;;;;;5054594;28;20192;-74
2022/12/13 06:26:20;;;;;;;26.95;12.90;;;;;;;;;;5054537;28;20183;-75
2022/12/13 06:29:24;;;;;;;24.98;13.30;;;;;;;;;;5054619;28;20191;-75
2022/12/13 06:32:28;;;;;;;25.63;13.02;;;;;;;;;;5054327;28;20570;-74
2022/12/13 06:35:32;;;;;;;26.25;13.68;;;;;;;;;;5041849;28;20235;-75
2022/12/13 06:38:36;;;;;;;24.35;12.75;;;;;;;;;;5054605;28;20191;-75
2022/12/13 06:41:40;;;;;;;26.60;13.20;;;;;;;;;;5053819;28;20239;-75
2022/12/13 06:44:44;;;;;;;28.90;13.55;;;;;;;;;;5041923;28;20183;-74
2022/12/13 06:47:49;;;;;;;24.00;13.07;;;;;;;;;;5054092;28;20527;-75
2022/12/13 06:50:53;;;;;;;25.30;12.85;;;;;;;;;;5041744;28;20191;-75
2022/12/13 06:53:57;;;;;;;21.30;11.38;;;;;;;;;;5041832;28;20195;-75
2022/12/13 06:57:01;;;;;;;26.15;13.57;;;;;;;;;;5054153;28;20191;-75
2022/12/13 07:00:06;;;;;;;25.42;13.65;;;;;;;;;;5054013;28;20183;-75
2022/12/13 07:03:11;;;;;;;35.67;12.68;;;;;;;;;;5054057;28;20195;-75
2022/12/13 07:06:17;;;;;;;23.55;12.38;;;;;;;;;;5041766;28;20672;-74
2022/12/13 07:09:21;;;;;;;27.83;12.88;;;;;;;;;;5053596;28;20184;-74
2022/12/13 07:12:25;;;;;;;25.27;12.52;;;;;;;;;;5053326;28;20222;-75
2022/12/13 07:15:32;;;;;;;28.10;13.27;;;;;;;;;;5041365;28;20574;-74
2022/12/13 07:18:36;;;;;;;24.60;12.63;;;;;;;;;;5040864;28;20203;-75
2022/12/13 07:21:40;;;;;;;120.90;35.92;;;;;;;;;;5053397;28;20226;-74
2022/12/13 07:24:44;;;;;;;94.78;26.88;;;;;;;;;;5053712;28;20179;-75
2022/12/13 07:27:55;;;;;;;61.55;20.98;;;;;;;;;;5053423;28;20191;-74
2022/12/13 07:31:00;;;;;;;47.53;17.55;;;;;;;;;;5041199;28;20666;-75
2022/12/13 07:34:04;;;;;;;49.88;18.50;;;;;;;;;;5053648;28;20180;-74
2022/12/13 07:37:08;;;;;;;32.95;15.00;;;;;;;;;;5040983;28;20179;-74
2022/12/13 07:40:12;;;;;;;30.20;16.38;;;;;;;;;;5041080;28;20183;-74
2022/12/13 07:43:16;;;;;;;33.30;17.00;;;;;;;;;;5041007;28;20179;-75
2022/12/13 07:46:21;;;;;;;30.23;15.35;;;;;;;;;;5029438;28;20180;-75
2022/12/13 07:49:25;;;;;;;32.05;15.38;;;;;;;;;;5040403;28;20526;-74
2022/12/13 07:52:30;;;;;;;32.83;16.88;;;;;;;;;;5052897;28;20223;-75
2022/12/13 07:55:35;;;;;;;31.63;15.52;;;;;;;;;;5053114;28;20215;-74
2022/12/13 07:58:41;;;;;;;31.17;14.90;;;;;;;;;;5041079;28;20247;-75
2022/12/13 08:01:45;;;;;;;30.00;14.90;;;;;;;;;;5029385;28;20222;-75
2022/12/13 08:04:49;;;;;;;30.48;13.90;;;;;;;;;;5040860;28;20202;-74
2022/12/13 08:07:54;;;;;;;31.10;13.52;;;;;;;;;;5041628;28;20210;-75
2022/12/13 08:11:10;;;;;;;33.30;14.13;;;;;;;;;;5041365;28;20183;-75
2022/12/13 08:14:14;;;;;;;30.05;13.68;;;;;;;;;;5018935;28;20207;-75
2022/12/13 08:17:18;;;;;;;30.25;13.65;;;;;;;;;;5041117;28;20199;-78
2022/12/13 08:20:22;;;;;;;30.80;14.60;;;;;;;;;;5041526;28;20179;-75
2022/12/13 08:23:28;;;;;;;28.55;14.75;;;;;;;;;;5043435;28;20187;-74
2022/12/13 08:26:32;;;;;;;30.35;14.45;;;;;;;;;;5058310;28;20191;-75
2022/12/13 08:29:37;;;;;;;31.67;15.45;;;;;;;;;;5045962;28;20192;-74
2022/12/13 08:32:41;;;;;;;26.42;14.35;;;;;;;;;;5045554;28;20223;-75
2022/12/13 08:35:46;;;;;;;24.70;12.38;;;;;;;;;;5057670;28;20219;-74
2022/12/13 08:38:54;;;;;;;28.13;12.98;;;;;;;;;;5057076;28;20211;-74
2022/12/13 08:41:58;;;;;;;28.35;12.02;;;;;;;;;;5043795;28;20219;-75
2022/12/13 08:45:03;;;;;;;27.98;13.57;;;;;;;;;;5055651;28;20207;-74
2022/12/13 08:48:07;;;;;;;27.00;13.38;;;;;;;;;;5043567;28;20530;-74
2022/12/13 08:51:16;;;;;;;24.80;13.02;;;;;;;;;;5055538;28;20219;-74
2022/12/13 08:54:20;;;;;;;26.20;12.20;;;;;;;;;;5031242;28;20188;-74
2022/12/13 08:57:25;;;;;;;27.02;13.80;;;;;;;;;;5054794;28;20650;-74
2022/12/13 09:00:29;;;;;;;25.55;12.18;;;;;;;;;;5056669;28;20183;-75
2022/12/13 09:03:34;;;;;;;26.85;12.88;;;;;;;;;;5057768;28;20183;-74
2022/12/13 09:06:41;;;;;;;29.77;12.10;;;;;;;;;;5044839;28;20274;-76
2022/12/13 09:09:45;;;;;;;26.05;12.50;;;;;;;;;;5044634;28;20204;-74
2022/12/13 09:12:50;;;;;;;28.17;12.30;;;;;;;;;;5033430;28;20238;-75
2022/12/13 09:15:54;;;;;;;26.80;11.82;;;;;;;;;;5021127;28;20211;-75
2022/12/13 09:18:58;;;;;;;27.77;12.70;;;;;;;;;;5032495;28;20219;-75
2022/12/13 09:22:03;;;;;;;27.10;12.90;;;;;;;;;;5056287;28;20218;-75
2022/12/13 09:25:08;;;;;;;23.45;12.30;;;;;;;;;;5032660;28;20282;-75
2022/12/13 09:28:12;;;;;;;30.38;13.98;;;;;;;;;;5056106;28;20191;-76
2022/12/13 09:31:18;;;;;;;30.40;14.15;;;;;;;;;;5044106;28;20223;-75
2022/12/13 09:34:22;;;;;;;27.25;12.52;;;;;;;;;;5043687;28;20187;-75
2022/12/13 09:37:28;;;;;;;26.02;12.27;;;;;;;;;;5055978;28;20218;-75
2022/12/13 09:40:33;;;;;;;25.30;12.38;;;;;;;;;;5055483;28;20685;-75
2022/12/13 09:43:40;;;;;;;24.30;13.40;;;;;;;;;;5055976;28;20243;-75
2022/12/13 09:46:46;;;;;;;25.55;12.88;;;;;;;;;;5043218;28;20179;-74
2022/12/13 09:49:50;;;;;;;24.20;11.82;;;;;;;;;;5032267;28;20192;-74
2022/12/13 09:52:55;;;;;;;25.83;12.50;;;;;;;;;;5055396;28;20214;-75
2022/12/13 09:56:00;;;;;;;26.48;12.90;;;;;;;;;;5055726;28;20211;-75
2022/12/13 09:59:04;;;;;;;29.30;13.40;;;;;;;;;;5043020;28;20187;-75
2022/12/13 10:02:20;;;;;;;24.75;12.27;;;;;;;;;;5055474;28;20223;-74
2022/12/13 10:05:35;;;;;;;25.20;10.98;;;;;;;;;;5055219;28;20650;-75
2022/12/13 10:08:43;;;;;;;23.10;12.47;;;;;;;;;;5051755;22;20569;-76
2022/12/13 10:11:50;;;;;;;27.73;12.53;;;;;;;;;;5035142;28;20653;-75
2022/12/13 10:14:58;;;;;;;24.17;11.87;;;;;;;;;;5039292;28;20563;-75
2022/12/13 10:18:04;;;;;;;22.93;11.63;;;;;;;;;;5039855;28;20879;-75
2022/12/13 10:21:14;;;;;;;20.80;10.50;;;;;;;;;;5027537;28;20985;-74
2022/12/13 10:24:21;;;;;;;21.27;9.93;;;;;;;;;;5038699;28;20894;-75
2022/12/13 10:27:34;;;;;;;22.27;11.13;;;;;;;;;;5038637;28;20540;-75
2022/12/13 10:30:41;;;;;;;18.47;9.57;;;;;;;;;;5038328;28;20556;-75
2022/12/13 10:33:54;;;;;;;22.03;10.97;;;;;;;;;;5037224;28;20544;-75
2022/12/13 10:36:59;;;;;;;17.83;9.67;;;;;;;;;;5037283;28;20611;-75
2022/12/13 10:40:03;;;;;;;17.67;9.67;;;;;;;;;;5036481;28;20544;-75
2022/12/13 10:43:25;;;;;;;20.50;9.97;;;;;;;;;;5036510;28;20603;-75
2022/12/13 10:46:31;;;;;;;20.03;10.73;;;;;;;;;;5036464;28;20540;-75
2022/12/13 10:49:52;;;;;;;18.43;9.40;;;;;;;;;;5034691;28;20539;-75
2022/12/13 10:52:58;;;;;;;17.00;9.87;;;;;;;;;;5012016;28;20623;-75
2022/12/13 10:56:03;;;;;;;22.90;9.53;;;;;;;;;;5034666;28;20594;-75
2022/12/13 10:59:17;;;;;;;14.93;8.53;;;;;;;;;;5022840;28;20540;-75
2022/12/13 11:02:29;;;;;;;20.17;10.23;;;;;;;;;;5033982;28;20630;-75
2022/12/13 11:05:35;;;;;;;19.60;9.53;;;;;;;;;;5033589;28;20734;-75
2022/12/13 11:08:39;;;;;;;17.73;8.90;;;;;;;;;;5033766;28;20540;-76
2022/12/13 11:11:43;;;;;;;20.60;9.17;;;;;;;;;;5033347;28;20642;-75
2022/12/13 11:15:02;;;;;;;16.97;9.27;;;;;;;;;;5033492;28;20915;-75
2022/12/13 11:18:20;;;;;;;15.47;7.93;;;;;;;;;;5033267;28;20608;-75
2022/12/13 11:21:27;;;;;;;17.73;9.13;;;;;;;;;;5022135;28;20627;-75
2022/12/13 11:24:34;;;;;;;16.90;8.97;;;;;;;;;;5022646;28;20537;-75
2022/12/13 11:27:57;;;;;;;15.43;8.97;;;;;;;;;;5022369;28;20559;-75
2022/12/13 11:31:09;;;;;;;21.10;8.70;;;;;;;;;;5034290;28;20544;-75
2022/12/13 11:34:31;;;;;;;15.87;8.40;;;;;;;;;;5033828;28;20599;-75
2022/12/13 11:37:41;;;;;;;16.23;8.70;;;;;;;;;;5022032;28;20595;-75
2022/12/13 11:40:52;;;;;;;18.37;9.00;;;;;;;;;;5032961;28;20544;-75
2022/12/13 11:44:09;;;;;;;14.87;8.73;;;;;;;;;;5033026;28;21168;-74
2022/12/13 11:47:20;;;;;;;21.03;8.57;;;;;;;;;;5032917;28;20536;-75
2022/12/13 11:50:32;;;;;;;17.37;9.30;;;;;;;;;;5032447;28;21202;-75
2022/12/13 11:53:48;;;;;;;22.10;8.93;;;;;;;;;;5033333;28;20560;-75
2022/12/13 11:56:56;;;;;;;14.67;7.97;;;;;;;;;;5032787;28;20604;-75
2022/12/13 12:00:23;;;;;;;18.13;8.40;;;;;;;;;;5033671;28;20599;-75
2022/12/13 12:03:39;;;;;;;15.70;8.73;;;;;;;;;;5024415;28;21179;-75
2022/12/13 12:06:50;;;;;;;18.07;8.60;;;;;;;;;;5033439;28;20888;-75
2022/12/13 12:10:00;;;;;;;15.63;8.13;;;;;;;;;;5032809;28;20623;-75
2022/12/13 12:13:27;;;;;;;16.07;8.70;;;;;;;;;;5021280;28;20615;-75
2022/12/13 12:16:39;;;;;;;13.73;8.10;;;;;;;;;;5021154;28;20604;-74
2022/12/13 12:19:48;;;;;;;16.27;8.23;;;;;;;;;;5021829;28;20540;-75
2022/12/13 12:23:10;;;;;;;14.37;7.70;;;;;;;;;;5034222;28;20963;-75
2022/12/13 12:26:16;;;;;;;17.17;7.93;;;;;;;;;;5034398;28;20536;-75
2022/12/13 12:29:59;;;;;;;15.30;8.40;;;;;;;;;;5021679;28;20562;-74
2022/12/13 12:33:03;;;;;;;13.37;7.33;;;;;;;;;;5019219;28;20976;-75
2022/12/13 12:36:26;;;;;;;16.33;8.43;;;;;;;;;;5036628;28;20536;-75
2022/12/13 12:40:08;;;;;;;14.30;7.73;;;;;;;;;;5026321;28;20532;-75
2022/12/13 12:43:21;;;;;;;18.23;8.03;;;;;;;;;;5025531;28;20580;-75
2022/12/13 12:46:55;;;;;;;13.93;7.60;;;;;;;;;;5036225;28;20540;-75
2022/12/13 12:50:24;;;;;;;13.53;7.73;;;;;;;;;;5025622;28;20540;-75
2022/12/13 12:53:45;;;;;;;13.43;7.97;;;;;;;;;;5036889;28;20540;-75
2022/12/13 12:57:09;;;;;;;16.00;7.77;;;;;;;;;;5036766;28;21161;-75
2022/12/13 13:00:18;;;;;;;18.20;8.97;;;;;;;;;;5038014;28;20548;-75
2022/12/13 13:03:24;;;;;;;15.93;8.60;;;;;;;;;;5036090;28;20606;-75
2022/12/13 13:06:34;;;;;;;15.20;8.53;;;;;;;;;;5036271;28;20591;-75
2022/12/13 13:09:39;;;;;;;16.53;8.70;;;;;;;;;;5037062;28;20686;-75
2022/12/13 13:12:43;;;;;;;15.27;7.60;;;;;;;;;;5036654;28;20615;-75
2022/12/13 13:15:55;;;;;;;18.43;9.27;;;;;;;;;;5013649;28;20540;-75
2022/12/13 13:19:04;;;;;;;13.93;7.20;;;;;;;;;;5036492;28;20600;-75
2022/12/13 13:22:29;;;;;;;13.90;7.00;;;;;;;;;;5035910;28;20631;-75
2022/12/13 13:25:34;;;;;;;16.90;8.30;;;;;;;;;;5035892;28;20537;-75
2022/12/13 13:28:38;;;;;;;14.00;7.33;;;;;;;;;;5035525;28;21069;-75
2022/12/13 13:32:01;;;;;;;13.87;7.97;;;;;;;;;;5035484;28;20635;-75
2022/12/13 13:35:31;;;;;;;15.20;7.90;;;;;;;;;;5036549;28;20517;-75
2022/12/13 13:38:53;;;;;;;14.50;7.80;;;;;;;;;;5035245;28;20595;-75
2022/12/13 13:42:13;;;;;;;14.13;7.83;;;;;;;;;;5035182;28;21125;-75
2022/12/13 13:45:19;;;;;;;16.57;7.90;;;;;;;;;;5034848;28;21093;-75
2022/12/13 13:48:43;;;;;;;17.03;8.17;;;;;;;;;;5023706;28;20540;-75
2022/12/13 13:52:14;;;;;;;17.20;8.10;;;;;;;;;;5034516;28;20987;-75
2022/12/13 13:55:26;;;;;;;17.20;7.57;;;;;;;;;;5023345;28;20540;-75
2022/12/13 13:58:58;;;;;;;13.37;7.57;;;;;;;;;;5034292;28;20651;-75
2022/12/13 14:02:33;;;;;;;13.93;7.73;;;;;;;;;;5034278;28;20627;-76
2022/12/13 14:05:56;;;;;;;15.33;7.33;;;;;;;;;;5035243;28;20864;-76
2022/12/13 14:09:28;;;;;;;14.47;7.53;;;;;;;;;;5034386;28;20618;-76
2022/12/13 14:12:51;;;;;;;17.40;7.50;;;;;;;;;;5034911;28;20623;-75
2022/12/13 14:16:33;;;;;;;13.30;6.87;;;;;;;;;;5022955;28;20548;-75
2022/12/13 14:20:12;;;;;;;14.80;7.70;;;;;;;;;;5034007;28;20541;-75
2022/12/13 14:23:31;;;;;;;13.27;7.40;;;;;;;;;;5022558;28;20536;-75
2022/12/13 14:27:14;;;;;;;16.33;7.80;;;;;;;;;;5035121;28;20647;-76
2022/12/13 14:30:21;;;;;;;12.97;7.23;;;;;;;;;;5013560;28;20557;-76
2022/12/13 14:33:25;;;;;;;21.03;8.30;;;;;;;;;;5034986;28;20983;-76
2022/12/13 14:36:34;;;;;;;11.27;6.90;;;;;;;;;;5034600;28;20548;-76
2022/12/13 14:39:43;;;;;;;15.07;7.27;;;;;;;;;;5034274;28;20611;-75
2022/12/13 14:42:53;;;;;;;14.50;7.40;;;;;;;;;;5033600;28;20627;-75
2022/12/13 14:45:59;;;;;;;15.30;7.43;;;;;;;;;;5034054;28;21090;-75
2022/12/13 14:49:03;;;;;;;12.20;7.43;;;;;;;;;;5034459;28;20548;-75
2022/12/13 14:52:17;;;;;;;13.77;8.17;;;;;;;;;;5034049;28;20983;-75
2022/12/13 14:55:36;;;;;;;14.50;7.77;;;;;;;;;;5022083;28;20540;-75
2022/12/13 14:58:52;;;;;;;13.83;7.63;;;;;;;;;;5033984;28;20584;-75
2022/12/13 15:02:01;;;;;;;16.53;7.90;;;;;;;;;;5021982;28;20955;-75
2022/12/13 15:05:06;;;;;;;16.10;8.40;;;;;;;;;;5033213;28;20603;-75
2022/12/13 15:08:15;;;;;;;15.27;7.43;;;;;;;;;;5033214;28;20618;-75
2022/12/13 15:11:19;;;;;;;15.60;8.63;;;;;;;;;;5021709;28;21181;-75
2022/12/13 15:14:24;;;;;;;13.20;7.30;;;;;;;;;;5033058;28;20544;-75
2022/12/13 15:17:37;;;;;;;16.03;8.43;;;;;;;;;;5033524;28;20626;-75
2022/12/13 15:20:58;;;;;;;16.57;8.13;;;;;;;;;;5034691;28;20552;-75
2022/12/13 15:24:09;;;;;;;19.07;10.87;;;;;;;;;;5035839;28;20547;-74
2022/12/13 15:27:20;;;;;;;19.13;8.97;;;;;;;;;;5024197;28;20543;-75
2022/12/13 15:30:33;;;;;;;13.50;7.40;;;;;;;;;;5023938;28;21133;-75
2022/12/13 15:33:38;;;;;;;15.00;7.67;;;;;;;;;;5012736;28;20540;-75
2022/12/13 15:36:42;;;;;;;14.50;7.17;;;;;;;;;;5034730;28;20560;-75
2022/12/13 15:39:47;;;;;;;22.07;10.87;;;;;;;;;;5024174;28;20533;-75
2022/12/13 15:42:52;;;;;;;22.73;12.40;;;;;;;;;;5023948;28;21199;-74
2022/12/13 15:45:56;;;;;;;18.33;10.50;;;;;;;;;;5035584;28;20606;-75
2022/12/13 15:49:01;;;;;;;16.80;9.73;;;;;;;;;;5013183;28;20598;-75
2022/12/13 15:52:14;;;;;;;16.40;7.93;;;;;;;;;;5024193;28;20619;-75
2022/12/13 15:55:18;;;;;;;14.73;8.40;;;;;;;;;;5035434;28;20536;-75
2022/12/13 15:58:25;;;;;;;16.57;8.87;;;;;;;;;;5012554;28;20604;-75
2022/12/13 16:01:33;;;;;;;14.73;8.17;;;;;;;;;;5023152;28;21212;-75
2022/12/13 16:04:37;;;;;;;14.73;7.97;;;;;;;;;;5023175;28;20896;-75
2022/12/13 16:07:41;;;;;;;19.80;9.53;;;;;;;;;;5012477;28;20532;-75
2022/12/13 16:10:47;;;;;;;14.83;7.83;;;;;;;;;;5046996;22;20685;-74
2022/12/13 16:13:51;;;;;;;14.07;7.80;;;;;;;;;;5045290;28;20870;-74
2022/12/13 16:17:09;;;;;;;15.70;7.40;;;;;;;;;;5057051;28;20542;-75
2022/12/13 16:20:19;;;;;;;14.20;7.10;;;;;;;;;;5056954;28;20539;-75
2022/12/13 16:23:24;;;;;;;14.23;7.60;;;;;;;;;;5056962;28;20539;-74
2022/12/13 16:26:30;;;;;;;14.60;8.50;;;;;;;;;;5044711;28;20531;-75
2022/12/13 16:29:34;;;;;;;15.73;7.60;;;;;;;;;;5056871;28;21093;-75
2022/12/13 16:32:38;;;;;;;18.10;8.23;;;;;;;;;;5056744;28;20622;-75
2022/12/13 16:35:42;;;;;;;14.13;7.53;;;;;;;;;;5056626;28;20914;-75
2022/12/13 16:38:46;;;;;;;11.90;6.67;;;;;;;;;;5044297;28;20602;-74
2022/12/13 16:41:51;;;;;;;11.67;6.40;;;;;;;;;;5044282;28;20646;-74
2022/12/13 16:44:56;;;;;;;10.83;6.23;;;;;;;;;;5056481;28;20535;-74
2022/12/13 16:48:00;;;;;;;13.67;6.50;;;;;;;;;;5044073;28;20539;-74
2022/12/13 16:51:07;;;;;;;10.97;6.57;;;;;;;;;;5056312;28;20625;-74
2022/12/13 16:54:11;;;;;;;9.30;5.57;;;;;;;;;;5021455;28;20543;-75
2022/12/13 16:57:15;;;;;;;10.27;5.80;;;;;;;;;;5056088;28;20535;-74
2022/12/13 17:00:20;;;;;;;9.47;6.03;;;;;;;;;;5056286;28;20551;-75
2022/12/13 17:03:24;;;;;;;10.85;6.72;;;;;;;;;;5043864;28;20539;-74
2022/12/13 17:06:28;;;;;;;12.07;6.17;;;;;;;;;;5055953;28;20631;-74
2022/12/13 17:09:33;;;;;;;12.10;6.47;;;;;;;;;;5055624;28;20602;-74
2022/12/13 17:12:38;;;;;;;9.50;5.83;;;;;;;;;;5055648;28;20626;-74
2022/12/13 17:15:42;;;;;;;8.97;5.90;;;;;;;;;;5055805;28;20585;-75
2022/12/13 17:18:48;;;;;;;12.27;6.63;;;;;;;;;;5043447;28;20594;-74
2022/12/13 17:21:52;;;;;;;11.63;6.67;;;;;;;;;;5055278;28;20212;-74
2022/12/13 17:24:56;;;;;;;11.10;6.53;;;;;;;;;;5043322;28;20543;-74
2022/12/13 17:28:02;;;;;;;12.73;6.97;;;;;;;;;;5043369;28;20543;-74
2022/12/13 17:31:10;;;;;;;12.63;6.67;;;;;;;;;;5055455;28;21192;-74
2022/12/13 17:34:14;;;;;;;10.57;6.33;;;;;;;;;;5043407;28;20556;-74
2022/12/13 17:37:18;;;;;;;12.20;6.67;;;;;;;;;;5043236;28;20551;-74
2022/12/13 17:40:22;;;;;;;11.40;6.17;;;;;;;;;;5055252;28;20531;-74
2022/12/13 17:43:27;;;;;;;8.77;6.03;;;;;;;;;;5042798;28;20550;-74
2022/12/13 17:46:33;;;;;;;9.57;6.40;;;;;;;;;;5042932;28;20543;-74
2022/12/13 17:49:37;;;;;;;13.77;6.53;;;;;;;;;;5042663;28;20590;-74
2022/12/13 17:52:41;;;;;;;12.13;7.10;;;;;;;;;;5055090;28;20637;-74
2022/12/13 17:55:59;;;;;;;13.67;7.30;;;;;;;;;;5055075;28;20539;-75
2022/12/13 17:59:04;;;;;;;15.97;8.77;;;;;;;;;;5031398;28;20590;-74
2022/12/13 18:02:11;;;;;;;12.87;7.23;;;;;;;;;;5042704;28;21180;-74
2022/12/13 18:05:16;;;;;;;14.63;6.53;;;;;;;;;;5031181;28;20555;-74
2022/12/13 18:08:20;;;;;;;11.40;7.23;;;;;;;;;;5031448;28;20866;-75
2022/12/13 18:11:24;;;;;;;13.60;7.63;;;;;;;;;;5054629;28;20630;-75
2022/12/13 18:14:29;;;;;;;12.73;7.30;;;;;;;;;;5042564;28;20551;-74
2022/12/13 18:17:33;;;;;;;10.43;6.67;;;;;;;;;;5042309;28;20531;-74
2022/12/13 18:20:39;;;;;;;11.80;7.17;;;;;;;;;;5031104;28;20543;-75
2022/12/13 18:23:43;;;;;;;12.93;7.73;;;;;;;;;;5042194;28;20544;-75
2022/12/13 18:26:47;;;;;;;14.33;7.80;;;;;;;;;;5054407;28;20549;-74
2022/12/13 18:29:51;;;;;;;11.13;6.47;;;;;;;;;;5030557;28;20550;-74
2022/12/13 18:32:56;;;;;;;11.73;7.00;;;;;;;;;;5053350;28;21214;-74